Time;durP1;ratioP1;P1;durP2;ratioP2;P2;SDS_P1;SDS_P2;PMS_P1;PMS_P2;Temp;Humidity;BMP_temperature;BMP_pressure;BME280_temperature;BME280_humidity;BME280_pressure;Samples;Min_cycle;Max_cycle;Signal;HPM_P1;HPM_P2
2020/12/19 00:01:04;;;;;;;8.07;7.20;;;;;;;5.57;82.37;97150.44;5012798;28;20269;-76
2020/12/19 00:03:30;;;;;;;9.20;7.17;;;;;;;5.63;81.91;97151.50;5013531;28;20187;-76
2020/12/19 00:05:56;;;;;;;9.73;7.80;;;;;;;5.71;81.38;97140.94;5001678;28;20682;-75
2020/12/19 00:08:21;;;;;;;9.73;7.60;;;;;;;5.58;82.13;97135.63;5011203;28;20598;-77
2020/12/19 00:10:47;;;;;;;10.43;7.87;;;;;;;5.64;82.17;97130.47;5011956;28;20212;-75
2020/12/19 00:13:12;;;;;;;11.20;8.03;;;;;;;5.59;82.07;97127.63;5010129;28;20703;-78
2020/12/19 00:15:38;;;;;;;10.70;8.00;;;;;;;5.66;81.97;97136.31;5012303;28;20179;-72
2020/12/19 00:18:04;;;;;;;9.33;7.67;;;;;;;5.48;82.43;97129.94;5012997;28;20186;-79
2020/12/19 00:20:30;;;;;;;10.50;7.80;;;;;;;5.58;82.05;97136.41;5011897;28;20282;-78
2020/12/19 00:22:55;;;;;;;9.43;7.70;;;;;;;5.52;82.45;97129.38;5012016;28;20179;-75
2020/12/19 00:25:21;;;;;;;8.87;7.03;;;;;;;5.58;81.93;97127.81;5011347;28;20191;-78
2020/12/19 00:27:46;;;;;;;9.00;6.90;;;;;;;5.47;82.09;97125.72;5011681;28;20298;-79
2020/12/19 00:30:12;;;;;;;10.67;7.50;;;;;;;5.46;82.29;97124.94;5012747;28;20207;-79
2020/12/19 00:32:39;;;;;;;7.80;6.83;;;;;;;5.44;82.40;97112.13;5010907;28;20278;-70
2020/12/19 00:35:05;;;;;;;7.57;6.73;;;;;;;5.41;82.72;97115.06;5012208;28;20215;-78
2020/12/19 00:37:31;;;;;;;9.27;7.30;;;;;;;5.48;82.49;97111.72;5012335;28;20227;-77
2020/12/19 00:39:57;;;;;;;8.33;7.23;;;;;;;5.53;82.43;97117.16;5011885;28;20652;-77
2020/12/19 00:42:22;;;;;;;9.97;7.40;;;;;;;5.44;82.45;97117.31;5012766;28;20186;-77
2020/12/19 00:44:47;;;;;;;7.87;5.37;;;;;;;5.62;81.27;97109.09;5012141;28;20187;-77
2020/12/19 00:47:13;;;;;;;7.20;6.20;;;;;;;5.60;81.56;97110.25;5011946;28;20649;-78
2020/12/19 00:49:38;;;;;;;7.27;6.27;;;;;;;5.64;81.20;97108.88;5011048;28;20202;-73
2020/12/19 00:52:04;;;;;;;9.10;6.60;;;;;;;5.55;81.97;97107.41;5012471;28;20643;-78
2020/12/19 00:54:29;;;;;;;11.50;7.67;;;;;;;5.56;81.90;97094.22;5012321;28;20185;-75
2020/12/19 00:56:54;;;;;;;8.90;6.73;;;;;;;5.69;81.49;97098.72;5010334;28;20318;-76
2020/12/19 00:59:20;;;;;;;7.30;6.33;;;;;;;5.65;81.03;97093.09;5012107;28;20548;-77
2020/12/19 01:01:45;;;;;;;10.43;7.50;;;;;;;5.70;81.07;97102.94;5011606;28;20191;-77
2020/12/19 01:04:11;;;;;;;9.10;6.87;;;;;;;5.56;82.00;97099.44;5012251;28;20254;-78
2020/12/19 01:06:36;;;;;;;9.30;7.67;;;;;;;5.48;82.32;97099.53;5011202;28;20186;-70
2020/12/19 01:09:04;;;;;;;10.03;7.83;;;;;;;5.41;82.35;97099.47;5011773;28;20191;-77
2020/12/19 01:11:31;;;;;;;11.30;8.03;;;;;;;5.37;82.85;97106.03;5011902;28;20219;-77
2020/12/19 01:13:57;;;;;;;13.43;8.20;;;;;;;5.33;82.92;97096.22;5011391;28;20179;-78
2020/12/19 01:16:26;;;;;;;11.23;8.07;;;;;;;5.12;83.93;97101.41;5012962;28;20182;-74
2020/12/19 01:18:53;;;;;;;11.73;8.63;;;;;;;5.22;83.61;97094.91;4995162;28;20218;-77
2020/12/19 01:21:21;;;;;;;8.73;7.60;;;;;;;5.04;84.38;97097.13;5023118;28;20632;-77
2020/12/19 01:23:50;;;;;;;10.27;7.67;;;;;;;5.10;83.88;97098.16;5011182;28;20560;-76
2020/12/19 01:26:16;;;;;;;12.07;8.30;;;;;;;4.98;84.35;97097.84;5011960;28;20210;-77
2020/12/19 01:28:42;;;;;;;8.70;6.90;;;;;;;4.92;84.56;97096.78;5010904;28;20309;-76
2020/12/19 01:31:11;;;;;;;11.13;7.10;;;;;;;4.88;84.90;97092.16;5011446;28;20356;-76
2020/12/19 01:33:37;;;;;;;10.53;7.07;;;;;;;4.95;84.46;97090.44;5010935;28;20545;-70
2020/12/19 01:36:07;;;;;;;7.83;6.90;;;;;;;4.99;84.19;97091.66;5011504;28;20203;-77
2020/12/19 01:38:32;;;;;;;8.93;6.90;;;;;;;5.08;83.94;97087.16;5000558;28;20199;-75
2020/12/19 01:40:57;;;;;;;8.83;7.33;;;;;;;5.09;84.14;97086.97;5010909;28;20706;-76
2020/12/19 01:43:23;;;;;;;9.40;6.97;;;;;;;4.91;84.84;97089.97;5010845;28;20207;-76
2020/12/19 01:45:49;;;;;;;8.03;7.17;;;;;;;4.84;85.48;97091.72;5010954;28;20618;-76
2020/12/19 01:48:25;;;;;;;8.27;7.07;;;;;;;4.82;85.78;97093.69;5011948;28;20183;-76
2020/12/19 01:50:52;;;;;;;8.10;6.93;;;;;;;4.89;85.53;97091.16;5023264;28;20211;-75
2020/12/19 01:53:22;;;;;;;8.70;6.90;;;;;;;4.81;85.88;97084.28;5011725;28;20218;-76
2020/12/19 01:55:51;;;;;;;9.43;7.10;;;;;;;4.83;85.76;97076.31;5010746;28;20245;-76
2020/12/19 01:58:16;;;;;;;8.80;6.83;;;;;;;4.90;85.08;97082.41;5012431;28;20262;-75
2020/12/19 02:00:42;;;;;;;7.80;6.33;;;;;;;4.81;86.09;97076.50;5014445;28;20274;-76
2020/12/19 02:03:08;;;;;;;7.17;6.43;;;;;;;5.03;84.89;97079.91;5015503;28;20183;-76
2020/12/19 02:05:38;;;;;;;8.13;6.67;;;;;;;5.07;84.48;97080.38;5015563;28;20179;-72
2020/12/19 02:08:03;;;;;;;8.60;6.60;;;;;;;5.03;84.40;97074.72;5015535;28;20214;-76
2020/12/19 02:10:32;;;;;;;8.83;6.77;;;;;;;4.93;85.44;97071.63;5015441;28;20615;-75
2020/12/19 02:13:05;;;;;;;7.93;6.43;;;;;;;4.98;84.93;97067.50;5014394;28;20187;-76
2020/12/19 02:15:46;;;;;;;8.80;6.67;;;;;;;4.94;85.17;97062.84;5015542;28;20195;-76
2020/12/19 02:18:12;;;;;;;7.87;6.63;;;;;;;4.98;84.86;97069.28;5015157;28;20191;-76
2020/12/19 02:20:38;;;;;;;8.23;6.47;;;;;;;4.93;85.53;97071.63;5014165;28;20605;-70
2020/12/19 02:23:06;;;;;;;6.63;5.60;;;;;;;5.00;85.61;97069.91;5012384;28;20195;-76
2020/12/19 02:25:36;;;;;;;7.17;5.93;;;;;;;5.02;85.20;97066.13;5015035;28;20191;-76
2020/12/19 02:28:08;;;;;;;6.57;5.50;;;;;;;4.97;85.39;97065.06;5014290;28;20249;-76
2020/12/19 02:30:34;;;;;;;5.97;5.37;;;;;;;5.00;85.11;97060.31;4998785;28;20192;-71
2020/12/19 02:32:59;;;;;;;6.50;5.37;;;;;;;5.04;84.86;97065.94;5014456;28;20301;-76
2020/12/19 02:35:26;;;;;;;6.27;5.30;;;;;;;5.15;84.00;97062.84;5014912;28;20187;-75
2020/12/19 02:37:52;;;;;;;7.70;5.43;;;;;;;5.12;84.54;97063.25;5013543;28;20231;-75
2020/12/19 02:40:18;;;;;;;7.60;5.30;;;;;;;4.95;84.76;97064.47;5014903;28;20611;-78
2020/12/19 02:42:43;;;;;;;7.33;5.40;;;;;;;5.05;84.60;97059.75;5013504;28;20233;-78
2020/12/19 02:45:10;;;;;;;4.90;4.40;;;;;;;5.08;84.09;97059.38;5013939;28;20601;-78
2020/12/19 02:47:36;;;;;;;6.00;4.60;;;;;;;5.09;83.74;97055.00;5014615;28;20183;-70
2020/12/19 02:50:03;;;;;;;5.13;4.27;;;;;;;5.16;83.56;97045.47;5013952;28;20613;-73
2020/12/19 02:52:28;;;;;;;4.93;3.60;;;;;;;5.26;83.04;97045.97;5013951;28;20188;-76
2020/12/19 02:54:53;;;;;;;4.10;3.70;;;;;;;5.30;83.17;97052.38;5013271;28;20787;-77
2020/12/19 02:57:19;;;;;;;5.43;3.70;;;;;;;5.47;81.63;97045.94;5017247;28;20219;-75
2020/12/19 02:59:44;;;;;;;7.03;3.77;;;;;;;5.41;82.59;97042.28;5013836;28;20663;-77
2020/12/19 03:02:10;;;;;;;4.33;3.80;;;;;;;5.42;82.24;97038.72;5013800;28;20718;-77
2020/12/19 03:04:35;;;;;;;4.00;3.60;;;;;;;5.46;82.05;97035.75;5013889;28;20187;-70
2020/12/19 03:07:00;;;;;;;5.93;3.37;;;;;;;5.52;81.63;97045.41;5013527;28;20688;-77
2020/12/19 03:09:26;;;;;;;4.53;3.37;;;;;;;5.48;81.39;97044.94;5013791;28;20187;-77
2020/12/19 03:11:51;;;;;;;3.80;3.10;;;;;;;5.52;81.53;97043.56;5013691;28;20321;-78
2020/12/19 03:14:18;;;;;;;3.47;3.10;;;;;;;5.54;81.05;97040.78;5013479;28;20211;-78
2020/12/19 03:16:43;;;;;;;4.60;3.43;;;;;;;5.44;81.71;97041.13;5013572;28;20233;-78
2020/12/19 03:19:08;;;;;;;4.03;3.63;;;;;;;5.54;80.79;97041.59;5013837;28;20568;-78
2020/12/19 03:21:34;;;;;;;4.33;3.57;;;;;;;5.47;81.26;97039.94;5013908;28;20179;-70
2020/12/19 03:23:59;;;;;;;4.07;3.73;;;;;;;5.49;81.10;97038.78;5013782;28;20584;-77
2020/12/19 03:26:24;;;;;;;4.27;3.63;;;;;;;5.49;81.04;97037.97;5002841;28;20218;-77
2020/12/19 03:28:50;;;;;;;4.43;4.00;;;;;;;5.41;81.27;97044.09;5012051;28;20184;-78
2020/12/19 03:31:15;;;;;;;6.00;3.90;;;;;;;5.34;81.55;97041.47;5013406;28;20594;-78
2020/12/19 03:33:41;;;;;;;4.60;4.20;;;;;;;5.47;80.93;97038.13;5013191;28;20207;-78
2020/12/19 03:36:06;;;;;;;4.47;3.90;;;;;;;5.50;80.64;97039.56;5013985;28;20210;-77
2020/12/19 03:38:32;;;;;;;4.63;3.73;;;;;;;5.48;80.21;97036.34;5013577;28;20231;-77
2020/12/19 03:40:57;;;;;;;4.97;4.03;;;;;;;5.47;80.63;97034.72;5011482;28;20206;-77
2020/12/19 03:43:23;;;;;;;3.73;3.30;;;;;;;5.37;81.09;97030.66;5012200;28;20179;-78
2020/12/19 03:45:48;;;;;;;4.10;3.70;;;;;;;5.30;81.30;97040.19;5013140;28;20596;-78
2020/12/19 03:48:14;;;;;;;4.23;3.77;;;;;;;5.38;81.29;97031.47;5013969;28;20255;-77
2020/12/19 03:50:39;;;;;;;3.93;3.47;;;;;;;5.33;81.18;97032.03;5012242;28;20306;-74
2020/12/19 03:53:04;;;;;;;4.83;3.50;;;;;;;5.37;81.08;97022.06;5027109;28;20517;-77
2020/12/19 03:55:30;;;;;;;6.20;3.60;;;;;;;5.43;80.85;97021.31;5013057;28;20241;-78
2020/12/19 03:57:55;;;;;;;3.60;3.30;;;;;;;5.46;80.36;97013.16;5012655;28;20180;-77
2020/12/19 04:00:20;;;;;;;3.73;3.43;;;;;;;5.59;80.33;97020.22;5013302;28;20270;-78
2020/12/19 04:02:46;;;;;;;3.77;3.13;;;;;;;5.59;79.83;97012.44;5011821;28;20187;-76
2020/12/19 04:05:11;;;;;;;3.53;3.23;;;;;;;5.58;79.71;97019.44;5013252;28;20644;-77
2020/12/19 04:07:38;;;;;;;5.03;3.37;;;;;;;5.63;79.64;97014.47;5013258;28;20191;-70
2020/12/19 04:10:05;;;;;;;5.10;3.40;;;;;;;5.50;80.08;97014.38;5013120;28;20738;-77
2020/12/19 04:12:31;;;;;;;4.13;3.17;;;;;;;5.57;79.88;97015.25;5012932;28;20266;-78
2020/12/19 04:14:56;;;;;;;3.47;3.17;;;;;;;5.51;80.00;97010.81;5012344;28;20258;-77
2020/12/19 04:17:22;;;;;;;3.73;3.43;;;;;;;5.46;80.49;97002.75;5012919;28;20183;-77
2020/12/19 04:19:48;;;;;;;4.17;3.50;;;;;;;5.45;80.63;97006.34;5014699;28;20187;-75
2020/12/19 04:22:13;;;;;;;4.57;3.47;;;;;;;5.46;80.12;97002.75;5012495;28;20288;-77
2020/12/19 04:24:39;;;;;;;3.70;3.33;;;;;;;5.41;80.43;97002.50;5012262;28;20191;-73
2020/12/19 04:27:04;;;;;;;3.97;3.50;;;;;;;5.39;80.71;96996.72;5012417;28;20187;-77
2020/12/19 04:29:31;;;;;;;4.03;3.63;;;;;;;5.49;80.31;96996.38;5012333;28;20187;-77
2020/12/19 04:31:58;;;;;;;3.47;3.17;;;;;;;5.35;80.54;97000.69;4983264;28;20175;-77
2020/12/19 04:34:24;;;;;;;5.23;3.33;;;;;;;5.40;80.71;96999.13;5012988;28;20539;-77
2020/12/19 04:36:49;;;;;;;3.83;3.50;;;;;;;5.54;80.12;96994.81;5009646;28;20278;-76
2020/12/19 04:39:15;;;;;;;4.37;2.90;;;;;;;5.50;80.57;96993.59;5012415;28;20192;-78
2020/12/19 04:41:41;;;;;;;3.90;3.50;;;;;;;5.53;80.30;96993.19;5000105;28;20609;-77
2020/12/19 04:44:06;;;;;;;4.23;3.63;;;;;;;5.56;79.89;96999.81;5012770;28;20180;-77
2020/12/19 04:46:32;;;;;;;3.47;3.17;;;;;;;5.36;80.52;96997.06;5012504;28;20187;-76
2020/12/19 04:48:59;;;;;;;4.20;3.30;;;;;;;5.36;80.64;96995.28;5010880;28;20926;-77
2020/12/19 04:51:28;;;;;;;4.63;4.00;;;;;;;5.33;80.96;96990.47;5012269;28;20214;-77
2020/12/19 04:53:56;;;;;;;4.23;3.83;;;;;;;5.23;81.46;96992.59;5011049;28;20187;-77
2020/12/19 04:56:23;;;;;;;5.53;4.03;;;;;;;5.26;81.16;97000.00;5012755;28;20222;-77
2020/12/19 04:58:53;;;;;;;4.30;3.90;;;;;;;5.30;80.81;97001.22;5011296;28;20190;-73
2020/12/19 05:01:19;;;;;;;4.03;3.60;;;;;;;5.07;81.54;97005.81;5012138;28;20195;-76
2020/12/19 05:03:48;;;;;;;4.63;3.90;;;;;;;4.94;82.10;97003.13;5011434;28;20187;-77
2020/12/19 05:06:17;;;;;;;5.50;4.10;;;;;;;5.10;81.50;96989.88;5012009;28;20190;-77
2020/12/19 05:08:42;;;;;;;4.93;4.47;;;;;;;5.00;81.84;96994.59;5011238;28;20656;-76
2020/12/19 05:11:08;;;;;;;4.83;4.33;;;;;;;4.86;82.66;96993.66;5010778;28;20205;-77
2020/12/19 05:13:33;;;;;;;6.53;4.33;;;;;;;5.08;81.93;96993.63;5012253;28;20282;-77
2020/12/19 05:15:58;;;;;;;4.53;4.13;;;;;;;4.92;82.27;96994.69;5011190;28;20183;-76
2020/12/19 05:18:24;;;;;;;4.73;4.23;;;;;;;4.93;82.49;96997.13;4995161;28;20628;-75
2020/12/19 05:20:49;;;;;;;4.47;4.07;;;;;;;4.90;82.28;96987.09;5009990;28;20195;-75
2020/12/19 05:23:17;;;;;;;5.67;4.37;;;;;;;4.82;83.03;96989.81;5011320;28;20175;-76
2020/12/19 05:25:44;;;;;;;6.10;4.70;;;;;;;4.74;82.82;96987.31;5011233;28;20195;-76
2020/12/19 05:28:09;;;;;;;7.03;4.90;;;;;;;4.71;83.06;96992.91;5011990;28;20187;-74
2020/12/19 05:30:35;;;;;;;6.37;4.90;;;;;;;4.61;83.59;96987.22;5011436;28;20210;-70
2020/12/19 05:33:00;;;;;;;5.97;4.87;;;;;;;4.56;83.63;96985.19;5010803;28;20272;-76
2020/12/19 05:35:26;;;;;;;7.07;5.60;;;;;;;4.42;84.46;96992.97;5011740;28;20223;-78
2020/12/19 05:38:00;;;;;;;6.77;5.90;;;;;;;4.51;84.12;96986.72;5011133;28;20231;-77
2020/12/19 05:40:26;;;;;;;9.73;5.70;;;;;;;4.36;84.07;96998.91;4996456;28;20209;-77
2020/12/19 05:42:52;;;;;;;7.27;5.97;;;;;;;4.38;84.39;96996.94;5010289;28;20545;-78
2020/12/19 05:45:21;;;;;;;6.87;5.80;;;;;;;4.46;84.01;96996.81;5010791;28;20318;-78
2020/12/19 05:47:47;;;;;;;8.83;5.70;;;;;;;4.27;84.88;96994.81;5010537;28;20191;-77
2020/12/19 05:50:13;;;;;;;7.83;5.90;;;;;;;4.15;85.47;96999.66;5011531;28;20205;-78
2020/12/19 05:52:40;;;;;;;7.20;5.93;;;;;;;4.05;85.76;96992.16;5010732;28;20195;-73
2020/12/19 05:55:10;;;;;;;5.90;4.97;;;;;;;4.07;86.12;96994.56;5011159;28;20237;-77
2020/12/19 05:57:36;;;;;;;6.30;5.17;;;;;;;4.10;85.90;96994.22;5011275;28;20222;-69
2020/12/19 06:00:20;;;;;;;6.63;4.50;;;;;;;4.10;85.50;96992.41;5023947;28;20686;-73
2020/12/19 06:02:46;;;;;;;5.80;5.30;;;;;;;4.23;85.16;96989.19;5010249;28;20628;-78
2020/12/19 06:05:14;;;;;;;5.80;5.10;;;;;;;4.11;85.67;96990.63;5011235;28;20188;-76
2020/12/19 06:07:44;;;;;;;6.67;5.80;;;;;;;4.22;85.44;97002.34;5010639;28;20183;-75
2020/12/19 06:10:16;;;;;;;8.03;5.60;;;;;;;4.09;86.28;96998.59;5011308;28;20734;-76
2020/12/19 06:13:23;;;;;;;7.27;4.60;;;;;;;4.16;86.10;97001.25;5010505;28;20245;-76
2020/12/19 06:16:05;;;;;;;5.93;4.60;;;;;;;4.34;85.65;97004.28;4911780;29;20250;-76
2020/12/19 06:18:49;;;;;;;8.27;4.93;;;;;;;4.29;85.77;96998.03;4912785;29;20214;-75
2020/12/19 06:21:16;;;;;;;5.13;3.87;;;;;;;4.41;85.29;97005.16;4911757;29;20199;-76
2020/12/19 06:23:42;;;;;;;4.47;3.80;;;;;;;4.40;85.80;96997.56;4911828;29;20329;-76
2020/12/19 06:26:09;;;;;;;4.80;3.60;;;;;;;4.43;85.87;96992.81;4912830;29;20270;-77
2020/12/19 06:28:54;;;;;;;4.73;3.80;;;;;;;4.50;85.56;97001.47;4912240;29;20640;-71
2020/12/19 06:31:22;;;;;;;4.97;3.30;;;;;;;4.44;85.92;97004.00;4912019;29;20273;-77
2020/12/19 06:33:50;;;;;;;4.20;3.50;;;;;;;4.60;84.95;97001.19;4911685;29;20202;-76
2020/12/19 06:36:27;;;;;;;5.17;3.73;;;;;;;4.60;84.68;97001.19;4912600;29;20195;-78
2020/12/19 06:38:58;;;;;;;5.57;4.30;;;;;;;4.50;85.17;96998.06;4910593;29;20246;-77
2020/12/19 06:41:42;;;;;;;5.80;4.17;;;;;;;4.57;85.00;96999.72;4906092;29;20655;-77
2020/12/19 06:44:18;;;;;;;5.43;4.17;;;;;;;4.53;85.44;97008.88;4912679;29;20187;-78
2020/12/19 06:46:44;;;;;;;4.43;4.00;;;;;;;4.59;84.80;96999.56;4966054;28;20199;-77
2020/12/19 06:49:22;;;;;;;5.50;4.23;;;;;;;4.65;84.65;97003.22;4991908;28;20190;-73
2020/12/19 06:52:13;;;;;;;4.90;4.40;;;;;;;4.36;85.19;97006.69;5006694;28;20179;-76
2020/12/19 06:54:40;;;;;;;4.70;4.30;;;;;;;4.39;86.63;97007.13;5010818;28;20187;-73
2020/12/19 06:57:28;;;;;;;5.77;5.10;;;;;;;4.46;84.92;97010.59;5014260;28;20203;-79
2020/12/19 06:59:58;;;;;;;5.77;4.80;;;;;;;4.69;84.62;97013.03;5016900;28;21045;-74
2020/12/19 07:02:24;;;;;;;8.27;5.83;;;;;;;4.38;83.43;97015.09;5015410;28;20274;-75
2020/12/19 07:04:51;;;;;;;9.60;6.50;;;;;;;4.28;83.25;97009.41;5013040;28;20191;-71
2020/12/19 07:07:23;;;;;;;7.73;6.90;;;;;;;4.07;84.00;97017.88;5013954;28;20183;-72
2020/12/19 07:10:01;;;;;;;9.03;6.53;;;;;;;3.81;84.76;97015.75;5012996;28;20207;-70
2020/12/19 07:12:31;;;;;;;7.50;6.20;;;;;;;3.85;85.16;97021.38;5014433;28;20270;-72
2020/12/19 07:14:57;;;;;;;7.60;6.17;;;;;;;3.56;86.32;97009.22;5015445;28;20187;-72
2020/12/19 07:17:22;;;;;;;8.07;6.67;;;;;;;3.68;85.69;97010.38;5014160;28;20193;-72
2020/12/19 07:19:57;;;;;;;8.43;7.27;;;;;;;3.52;86.32;97015.72;5013421;28;20193;-72
2020/12/19 07:22:24;;;;;;;9.13;6.20;;;;;;;3.62;86.08;97008.53;5014157;28;20262;-71
2020/12/19 07:24:50;;;;;;;8.33;6.87;;;;;;;3.51;86.23;97012.31;5012951;28;20607;-69
2020/12/19 07:27:16;;;;;;;10.67;7.03;;;;;;;3.41;86.97;97016.97;5005376;28;20227;-72
2020/12/19 07:29:41;;;;;;;9.10;7.30;;;;;;;3.24;87.46;97033.63;5013167;28;20586;-71
2020/12/19 07:32:07;;;;;;;8.40;7.10;;;;;;;3.39;87.20;97033.66;5003338;28;20187;-71
2020/12/19 07:34:32;;;;;;;8.63;7.30;;;;;;;3.38;87.05;97026.88;5013458;28;20179;-71
2020/12/19 07:36:58;;;;;;;8.63;7.30;;;;;;;3.30;87.17;97031.13;5012345;28;20322;-71
2020/12/19 07:39:23;;;;;;;9.10;7.67;;;;;;;3.49;86.51;97021.28;5013488;28;20621;-72
2020/12/19 07:42:06;;;;;;;12.93;8.37;;;;;;;3.42;86.46;97034.13;5012618;28;20198;-71
2020/12/19 07:44:33;;;;;;;10.43;8.40;;;;;;;3.35;86.51;97025.44;5013639;28;20187;-70
2020/12/19 07:47:14;;;;;;;11.90;8.00;;;;;;;3.54;85.46;97031.91;5012042;28;20188;-71
2020/12/19 07:49:50;;;;;;;8.87;7.73;;;;;;;3.44;86.12;97034.75;5012509;28;20241;-70
2020/12/19 07:52:21;;;;;;;12.13;8.03;;;;;;;3.46;85.79;97037.16;5012476;28;20369;-71
2020/12/19 07:55:05;;;;;;;9.00;7.87;;;;;;;3.44;85.99;97039.94;5015267;28;20184;-71
2020/12/19 07:57:32;;;;;;;9.60;8.20;;;;;;;3.53;86.23;97038.06;5013551;28;20167;-72
2020/12/19 07:59:58;;;;;;;11.03;7.73;;;;;;;3.49;85.53;97037.63;5011972;28;20218;-72
2020/12/19 08:02:24;;;;;;;8.77;7.47;;;;;;;3.64;85.74;97042.81;5012901;28;20184;-73
2020/12/19 08:04:55;;;;;;;11.33;8.33;;;;;;;3.76;84.49;97042.22;5004652;28;20193;-70
2020/12/19 08:07:24;;;;;;;8.50;7.60;;;;;;;3.73;84.55;97034.78;5013631;28;20253;-73
2020/12/19 08:09:57;;;;;;;10.17;7.70;;;;;;;3.72;84.54;97047.94;5010232;28;20246;-74
2020/12/19 08:12:23;;;;;;;9.77;7.90;;;;;;;3.59;85.33;97047.72;5012846;28;20587;-71
2020/12/19 08:14:51;;;;;;;11.77;8.17;;;;;;;3.57;84.93;97045.31;5008403;28;20231;-71
2020/12/19 08:17:17;;;;;;;10.00;7.93;;;;;;;3.72;85.66;97046.16;5005253;28;20234;-72
2020/12/19 08:19:48;;;;;;;8.33;6.90;;;;;;;3.87;84.61;97043.56;5003540;28;20219;-72
2020/12/19 08:22:14;;;;;;;10.87;7.97;;;;;;;3.98;84.51;97043.13;5008371;28;20179;-75
2020/12/19 08:24:44;;;;;;;9.47;8.03;;;;;;;3.96;84.13;97042.47;5008914;28;20200;-72
2020/12/19 08:27:43;;;;;;;10.03;7.60;;;;;;;4.08;83.48;97046.25;5005512;28;20235;-72
2020/12/19 08:30:11;;;;;;;9.50;7.80;;;;;;;3.93;83.89;97037.66;5011828;28;20218;-71
2020/12/19 08:32:43;;;;;;;9.73;7.40;;;;;;;4.07;82.71;97047.22;5002447;28;20194;-68
2020/12/19 08:35:08;;;;;;;10.03;7.97;;;;;;;4.06;83.49;97043.06;5012308;28;20191;-73
2020/12/19 08:37:34;;;;;;;7.57;6.60;;;;;;;4.32;82.30;97044.34;5011427;28;20223;-71
2020/12/19 08:40:06;;;;;;;8.37;7.13;;;;;;;4.35;82.88;97046.56;5011410;28;20261;-75
2020/12/19 08:42:34;;;;;;;8.70;7.20;;;;;;;4.28;82.86;97045.72;5009216;28;20222;-75
2020/12/19 08:45:21;;;;;;;8.67;7.60;;;;;;;4.42;82.23;97044.88;5000279;28;20198;-75
2020/12/19 08:47:49;;;;;;;9.63;7.47;;;;;;;4.30;82.66;97044.53;5017934;28;20270;-76
2020/12/19 08:50:15;;;;;;;8.97;7.03;;;;;;;4.59;80.90;97043.69;5012119;28;20574;-77
2020/12/19 08:52:40;;;;;;;8.07;7.23;;;;;;;4.58;81.66;97055.84;5010905;28;20195;-74
2020/12/19 08:55:06;;;;;;;8.90;7.27;;;;;;;4.46;81.14;97049.53;5010647;28;20241;-75
2020/12/19 08:57:32;;;;;;;8.60;7.53;;;;;;;4.53;81.26;97044.41;5011896;28;20190;-75
2020/12/19 09:00:14;;;;;;;8.57;7.17;;;;;;;4.61;81.08;97044.31;5010275;28;20834;-75
2020/12/19 09:02:43;;;;;;;7.93;6.93;;;;;;;4.51;81.97;97056.78;4996436;28;20255;-73
2020/12/19 09:05:10;;;;;;;9.33;6.37;;;;;;;4.57;81.71;97058.63;5002703;28;20208;-76
2020/12/19 09:07:36;;;;;;;6.83;6.20;;;;;;;4.71;81.13;97060.41;4990699;28;20844;-71
2020/12/19 09:10:21;;;;;;;7.63;6.10;;;;;;;4.84;80.34;97064.94;5019048;28;20212;-77
2020/12/19 09:12:46;;;;;;;6.80;6.10;;;;;;;4.96;79.29;97063.44;5007443;28;20191;-75
2020/12/19 09:15:18;;;;;;;7.53;6.33;;;;;;;4.98;79.76;97066.69;5011652;28;20257;-77
2020/12/19 09:17:43;;;;;;;9.50;6.80;;;;;;;5.02;79.28;97063.53;5011270;28;20187;-75
2020/12/19 09:20:09;;;;;;;7.00;6.20;;;;;;;5.00;79.77;97067.31;5010900;28;20187;-76
2020/12/19 09:22:34;;;;;;;7.27;6.50;;;;;;;5.14;79.67;97068.22;5008589;28;20632;-79
2020/12/19 09:24:59;;;;;;;7.73;6.80;;;;;;;5.21;79.29;97074.31;5004470;28;20249;-77
2020/12/19 09:27:25;;;;;;;7.60;6.77;;;;;;;5.27;78.92;97071.78;5000386;28;20196;-78
2020/12/19 09:29:51;;;;;;;7.03;6.33;;;;;;;5.23;79.42;97072.34;5006905;28;20199;-77
2020/12/19 09:32:16;;;;;;;7.77;6.90;;;;;;;5.37;79.39;97076.66;5011424;28;20667;-77
2020/12/19 09:34:42;;;;;;;7.40;6.27;;;;;;;5.37;79.76;97080.06;5009821;28;20562;-75
2020/12/19 09:37:08;;;;;;;8.77;6.70;;;;;;;5.52;78.73;97074.78;5011593;28;20298;-75
2020/12/19 09:39:33;;;;;;;8.83;6.27;;;;;;;5.50;78.50;97078.56;5011327;28;20196;-75
2020/12/19 09:41:59;;;;;;;8.40;7.00;;;;;;;5.50;78.60;97070.78;5010242;28;20198;-74
2020/12/19 09:44:24;;;;;;;7.63;6.37;;;;;;;5.47;78.92;97076.31;4999554;28;20179;-75
2020/12/19 09:46:49;;;;;;;8.07;6.47;;;;;;;5.48;79.56;97070.94;5011591;28;20194;-75
2020/12/19 09:49:15;;;;;;;7.80;6.60;;;;;;;5.54;79.20;97067.59;5012270;28;20602;-75
2020/12/19 09:51:40;;;;;;;8.20;6.37;;;;;;;5.74;78.58;97070.38;5009630;28;20222;-75
2020/12/19 09:54:05;;;;;;;9.10;6.23;;;;;;;5.52;78.98;97077.38;5009833;28;20585;-75
2020/12/19 09:56:38;;;;;;;7.33;5.80;;;;;;;5.72;78.80;97073.16;5011941;28;20191;-74
2020/12/19 09:59:04;;;;;;;7.60;6.80;;;;;;;5.85;78.21;97064.66;5025880;28;20194;-75
2020/12/19 10:01:30;;;;;;;8.90;6.80;;;;;;;5.82;78.08;97063.22;5012074;28;20195;-75
2020/12/19 10:03:55;;;;;;;8.77;7.07;;;;;;;5.86;77.97;97066.22;5011482;28;20639;-75
2020/12/19 10:06:21;;;;;;;8.33;6.37;;;;;;;6.00;78.17;97059.38;5017120;28;20190;-75
2020/12/19 10:08:46;;;;;;;9.40;6.43;;;;;;;6.12;77.90;97060.44;5010751;28;20188;-75
2020/12/19 10:11:12;;;;;;;6.90;5.93;;;;;;;6.14;77.78;97056.63;5011576;28;20602;-75
2020/12/19 10:13:37;;;;;;;8.87;6.70;;;;;;;6.23;78.23;97052.91;5010651;28;20270;-73
2020/12/19 10:16:05;;;;;;;7.73;6.20;;;;;;;6.28;78.73;97056.72;5012187;28;20187;-75
2020/12/19 10:18:31;;;;;;;5.83;5.17;;;;;;;6.46;77.75;97057.00;5011517;28;20192;-73
2020/12/19 10:20:56;;;;;;;6.90;6.07;;;;;;;6.55;77.82;97050.63;5014623;28;20188;-74
2020/12/19 10:23:22;;;;;;;8.57;5.80;;;;;;;6.57;77.96;97056.47;5015785;28;20635;-75
2020/12/19 10:25:47;;;;;;;6.60;5.77;;;;;;;6.65;77.39;97048.47;5014082;28;20179;-74
2020/12/19 10:28:13;;;;;;;7.13;5.63;;;;;;;6.76;76.70;97053.09;5015444;28;20198;-74
2020/12/19 10:30:38;;;;;;;6.43;5.60;;;;;;;6.79;77.00;97044.91;5007140;28;20199;-74
2020/12/19 10:33:04;;;;;;;6.43;5.57;;;;;;;6.96;76.40;97042.75;5015683;28;20194;-74
2020/12/19 10:35:29;;;;;;;8.43;5.97;;;;;;;7.15;76.02;97035.94;5015028;28;20179;-73
2020/12/19 10:37:54;;;;;;;7.27;5.43;;;;;;;7.24;75.52;97034.78;5014568;28;20443;-74
2020/12/19 10:40:20;;;;;;;7.37;5.57;;;;;;;7.26;75.03;97037.97;5015195;28;20270;-74
2020/12/19 10:42:45;;;;;;;5.73;5.10;;;;;;;7.37;74.63;97035.56;4999006;28;20219;-73
2020/12/19 10:45:11;;;;;;;6.07;5.17;;;;;;;7.52;74.48;97027.56;5015192;28;20183;-75
2020/12/19 10:47:36;;;;;;;6.20;5.20;;;;;;;7.48;74.81;97021.13;5014335;28;20191;-73
2020/12/19 10:50:02;;;;;;;5.97;5.37;;;;;;;7.60;74.63;97026.56;5015135;28;20294;-73
2020/12/19 10:52:27;;;;;;;5.97;5.37;;;;;;;7.71;74.75;97010.28;5014988;28;20187;-73
2020/12/19 10:54:54;;;;;;;5.60;4.93;;;;;;;7.89;73.61;97026.13;5013549;28;20652;-73
2020/12/19 10:57:20;;;;;;;6.20;5.10;;;;;;;7.85;73.46;97027.53;5013950;28;20180;-72
2020/12/19 10:59:45;;;;;;;6.73;4.93;;;;;;;8.10;73.58;97014.63;5013159;28;20279;-73
2020/12/19 11:02:11;;;;;;;7.37;5.20;;;;;;;8.44;77.64;97019.56;5014153;28;20211;-77
2020/12/19 11:04:36;;;;;;;6.33;5.50;;;;;;;8.59;71.96;97011.47;5013835;28;20286;-70
2020/12/19 11:07:02;;;;;;;7.10;5.90;;;;;;;8.72;72.15;97001.75;5013540;28;20195;-73
2020/12/19 11:09:27;;;;;;;7.57;5.70;;;;;;;8.93;71.78;97005.06;5014250;28;20273;-74
2020/12/19 11:11:54;;;;;;;6.97;6.20;;;;;;;9.06;71.87;97000.56;5012743;28;20207;-72
2020/12/19 11:14:20;;;;;;;6.90;6.13;;;;;;;9.10;71.64;97000.94;5013728;28;20187;-73
2020/12/19 11:16:46;;;;;;;7.70;6.03;;;;;;;9.25;70.67;96996.19;5011155;28;20195;-71
2020/12/19 11:19:11;;;;;;;8.70;6.47;;;;;;;9.30;70.69;96985.91;5006376;28;20187;-72
2020/12/19 11:21:41;;;;;;;7.13;5.37;;;;;;;9.43;69.39;96983.16;5009473;28;20286;-70
2020/12/19 11:24:07;;;;;;;7.47;5.10;;;;;;;9.52;68.25;96978.47;5012353;28;20262;-73
2020/12/19 11:26:32;;;;;;;5.03;4.50;;;;;;;9.63;66.05;96982.22;5006802;28;20270;-72
2020/12/19 11:28:58;;;;;;;5.87;4.80;;;;;;;9.70;65.47;96978.50;5010209;28;20856;-72
2020/12/19 11:31:27;;;;;;;4.70;4.17;;;;;;;9.83;65.05;96977.56;4996907;28;20304;-72
2020/12/19 11:33:54;;;;;;;4.20;3.53;;;;;;;9.92;64.57;96971.03;5002955;28;20188;-71
2020/12/19 11:36:20;;;;;;;4.53;3.30;;;;;;;10.01;63.39;96967.13;5006701;28;20237;-72
2020/12/19 11:38:46;;;;;;;5.07;4.50;;;;;;;10.18;64.01;96967.38;5011882;28;20312;-72
2020/12/19 11:41:11;;;;;;;5.83;4.90;;;;;;;10.30;64.27;96968.25;5012882;28;20648;-73
2020/12/19 11:43:37;;;;;;;6.27;4.80;;;;;;;10.44;64.16;96959.19;5012888;28;20278;-69